Situação meteorológica que não inspira cuidado.   -   Não há avisos

Nearby METAR Reports

 

LEZL - Sevilla, Spain
Distance from station: ENE 8km
Actualizado: 18/11/2018 23:30
Chuva fraca, Muito nublado
Chuva fraca, Muito nublado
 Vento de SE
Vento: SE 17 km/h
Temperatura: 14°C
Ponto de Orvalho: 13°C
Humidade: 94%
Barómetro: 1000 hPa
Resumo: Chuva fraca
Clouds: Muito nublado
Visibility: 9 km
Cloud details: Muito nublado 335 m
2018/11/18 22:30 LEZL 182230Z 14009KT 110V190 9000 -RA BKN011 14/13 Q1000 NOSIG
LEMO - Morón, Spain
Distance from station: SE 43km
Actualizado: 18/11/2018 23:00
Parcialmente nublado
Parcialmente nublado
 Vento de S
Vento: S 20 km/h
Temperatura: 14°C
Ponto de Orvalho: 11°C
Humidade: 82%
Barómetro: 1000 hPa
Clouds: Parcialmente nublado
Visibility: 10 km
Cloud details: Parcialmente nublado 701 m
2018/11/18 22:00 LEMO 182200Z 17011KT 9999 SCT023 14/11 Q1000 NOSIG
LEJR - Jeréz, Spain
Distance from station: S 71km
Actualizado: 18/11/2018 23:30
Parcialmente nublado
Parcialmente nublado
 Vento de S
Vento: S 11 km/h
Temperatura: 13°C
Ponto de Orvalho: 12°C
Humidade: 94%
Barómetro: 1000 hPa
Clouds: Parcialmente nublado
Visibility: 10 km
Cloud details: Parcialmente nublado 1067 m
Parcialmente nublado 1250 m
2018/11/18 22:30 LEJR 182230Z AUTO 18006KT 9999 SCT035/// SCT041/// 13/12 Q1000
 
LERT - Rota, Spain
Distance from station: SSW 89km
Actualizado: 18/11/2018 23:31
Parcialmente nublado
Parcialmente nublado
 Vento de WNW
Vento: WNW 15 km/h
Temperatura: 14°C
Ponto de Orvalho: 13°C
Humidade: 94%
Barómetro: 1000 hPa
Clouds: Parcialmente nublado
Visibility: 10 km
Cloud details: Parcialmente nublado 518 m
Parcialmente nublado 1158 m
2018/11/18 22:31 LERT 182231Z 30008KT 9999 SCT017 SCT038 14/13 Q1000 TEMPO 4000 SHRA SCT020TCU
LEMG - Málaga, Spain
Distance from station: ESE 157km
Actualizado: 18/11/2018 23:30
Muito nublado
Muito nublado
 Vento de varies
Vento: varies 4 km/h
Temperatura: 14°C
Ponto de Orvalho: 12°C
Humidade: 88%
Barómetro: 1002 hPa
Clouds: Muito nublado
Visibility: 10 km
Cloud details: Few Clouds 610 m
Parcialmente nublado 1219 m
Muito nublado 2286 m
2018/11/18 22:30 LEMG 182230Z VRB02KT 9999 FEW020 SCT040 BKN075 14/12 Q1002 NOSIG
LEBA - Córdoba, Spain
Distance from station: ENE 115km
Actualizado: 18/11/2018 23:30
Parcialmente nublado
Parcialmente nublado
 Vento de ENE
Vento: ENE 13 km/h
Temperatura: 13°C
Ponto de Orvalho: 12°C
Humidade: 94%
Barómetro: 1001 hPa
Clouds: Parcialmente nublado
Visibility: 6 km
2018/11/18 22:30 LEBA 182230Z AUTO 06007KT 6000 NSC 13/12 Q1001
 
LEGR - Granada, Spain
Distance from station: E 198km
Actualizado: 18/11/2018 23:30
Encoberto
Encoberto
 Vento de NE
Vento: NE 4 km/h
Temperatura: 9°C
Ponto de Orvalho: 9°C
Humidade: 100%
Barómetro: 1002 hPa
Clouds: Encoberto
Visibility: 10 km
Cloud details: Few Clouds 1219 m
Parcialmente nublado 2743 m
Encoberto 3353 m
2018/11/18 22:30 LEGR 182230Z 05002KT 9999 FEW040 SCT090 OVC110 09/09 Q1002
LEAM - Almería, Spain
Distance from station: E 326km
Actualizado: 18/11/2018 23:30
Chuva fraca
Chuva fraca
 Vento de WNW
Vento: WNW 13 km/h
Temperatura: 14°C
Ponto de Orvalho: 12°C
Humidade: 88%
Barómetro: 1002 hPa
Resumo: Chuva fraca
Visibility: 10 km
2018/11/18 22:30 LEAM 182230Z AUTO 30007KT 270V330 9999 -RA ////// 14/12 Q1002
LEMD - Madrid/Barajas, Spain
Distance from station: NNE 402km
Actualizado: 18/11/2018 23:44
Chuviscos, Encoberto
Chuviscos, Encoberto
 Vento de varies
Vento: varies 4 km/h
Temperatura: 10°C
Ponto de Orvalho: 9°C
Humidade: 94%
Barómetro: 1004 hPa
Resumo: Chuviscos
Clouds: Encoberto
Visibility: 10 km
Cloud details: Parcialmente nublado 671 m
Encoberto 1463 m
2018/11/18 22:44 LEMD 182244Z VRB02KT 9999 DZ SCT022 OVC048 10/09 Q1004 R88/29//95 TEMPO NSW
 
LEVD - Valladolid, Spain
Distance from station: N 492km
Actualizado: 18/11/2018 21:30
NOT Current
Muito nublado
Muito nublado
 Vento de E
Vento: E 9 km/h
Temperatura: 9°C
Índice de frío: 7°C
Ponto de Orvalho: 8°C
Humidade: 94%
Barómetro: 1003 hPa
Clouds: Muito nublado
Visibility: 10 km
Cloud details: Muito nublado 549 m
Muito nublado 792 m
2018/11/18 20:30 LEVD 182030Z 09005KT 9999 BKN018 BKN026 09/08 Q1003
LEBL - Barcelona, Spain
Distance from station: NE 816km
Actualizado: 18/11/2018 23:30
Few Clouds
Few Clouds
 Vento de E
Vento: E 31 km/h, Rajada: 50 km/h
Temperatura: 14°C
Ponto de Orvalho: 11°C
Humidade: 82%
Barómetro: 1009 hPa
Clouds: Few Clouds
Visibility: 10 km
Cloud details: Few Clouds 610 m
2018/11/18 22:30 LEBL 182230Z 08017G27KT 9999 FEW020 14/11 Q1009 NOSIG
LEVC - Valencia, Spain
Distance from station: ENE 535km
Actualizado: 18/11/2018 23:30
Chuva fraca, Muito nublado
Chuva fraca, Muito nublado
 Vento de NNE
Vento: NNE 11 km/h
Temperatura: 15°C
Ponto de Orvalho: 12°C
Humidade: 82%
Barómetro: 1005 hPa
Resumo: Chuva fraca
Clouds: Muito nublado
Visibility: 10 km
Cloud details: Few Clouds 610 m
Muito nublado 914 m
2018/11/18 22:30 LEVC 182230Z 03006KT 350V090 9999 -RA FEW020TCU BKN030 15/12 Q1005 TEMPO 4000 SHRA